createdAt,value
2019-05-25T00:01:04.931Z,29.46
2019-05-25T00:03:39.758Z,29.67
2019-05-25T00:06:14.219Z,29.71
2019-05-25T00:08:49.741Z,29.81
2019-05-25T00:11:25.333Z,29.73
2019-05-25T00:14:12.420Z,29.85
2019-05-25T00:16:47.966Z,29.58
2019-05-25T00:19:21.606Z,29.47
2019-05-25T00:21:56.521Z,29.31
2019-05-25T00:24:30.170Z,29.34
2019-05-25T00:27:05.596Z,29.32
2019-05-25T00:29:40.724Z,29.37
2019-05-25T00:32:14.370Z,29.28
2019-05-25T00:34:48.371Z,29.24
2019-05-25T00:37:23.783Z,29.23
2019-05-25T00:39:58.940Z,29.16
2019-05-25T00:42:32.414Z,29.05
2019-05-25T00:45:08.379Z,28.98
2019-05-25T00:47:42.091Z,28.92
2019-05-25T00:50:16.331Z,28.94
2019-05-25T00:52:52.657Z,28.94
2019-05-25T00:55:26.480Z,29.15
2019-05-25T00:58:01.699Z,29.31
2019-05-25T01:00:35.317Z,29.46
2019-05-25T01:03:10.488Z,29.50
2019-05-25T01:05:45.659Z,29.46
2019-05-25T01:08:20.791Z,29.52
2019-05-25T01:10:54.313Z,29.52
2019-05-25T01:13:29.387Z,29.51
2019-05-25T01:16:03.075Z,29.59
2019-05-25T01:18:36.630Z,29.62
2019-05-25T01:21:14.669Z,29.72
2019-05-25T01:23:50.338Z,30.11
2019-05-25T01:26:25.735Z,30.08
2019-05-25T01:29:03.051Z,30.10
2019-05-25T01:31:38.160Z,30.10
2019-05-25T01:34:14.968Z,30.11
2019-05-25T01:36:50.011Z,30.17
2019-05-25T01:39:25.051Z,30.21
2019-05-25T01:41:59.989Z,30.18
2019-05-25T01:44:35.098Z,30.27
2019-05-25T01:47:10.372Z,30.11
2019-05-25T01:49:45.575Z,30.18
2019-05-25T01:52:23.582Z,30.19
2019-05-25T01:55:01.446Z,30.23
2019-05-25T01:57:48.786Z,30.08
2019-05-25T02:00:18.185Z,30.28
2019-05-25T02:02:53.749Z,30.24
2019-05-25T02:05:28.911Z,30.43
2019-05-25T02:08:05.135Z,30.52
2019-05-25T02:10:40.400Z,30.55
2019-05-25T02:13:15.578Z,30.58
2019-05-25T02:15:50.952Z,30.49
2019-05-25T02:18:26.462Z,30.54
2019-05-25T02:21:01.415Z,30.61
2019-05-25T02:23:36.517Z,30.65
2019-05-25T02:26:12.286Z,30.78
2019-05-25T02:28:46.474Z,30.91
2019-05-25T02:31:20.029Z,30.98
2019-05-25T02:33:56.076Z,31.12
2019-05-25T02:36:29.993Z,31.20
2019-05-25T02:39:04.856Z,31.31
2019-05-25T02:41:38.416Z,31.29
2019-05-25T02:44:18.477Z,31.59
2019-05-25T02:46:52.035Z,31.60
2019-05-25T02:49:27.720Z,31.68
2019-05-25T02:52:01.326Z,31.71
2019-05-25T02:54:35.286Z,31.81
2019-05-25T02:57:10.285Z,31.83
2019-05-25T02:59:43.800Z,31.83
2019-05-25T03:02:17.439Z,31.92
2019-05-25T03:04:52.353Z,31.90
2019-05-25T03:07:27.449Z,32.02
2019-05-25T03:10:03.675Z,32.11
2019-05-25T03:12:38.983Z,32.18
2019-05-25T03:15:13.987Z,32.11
2019-05-25T03:17:47.498Z,32.13
2019-05-25T03:20:22.073Z,32.08
2019-05-25T03:22:55.840Z,32.15
2019-05-25T03:25:29.538Z,32.11
2019-05-25T03:28:03.368Z,32.07
2019-05-25T03:30:42.072Z,32.12
2019-05-25T03:33:17.244Z,32.10
2019-05-25T03:35:51.561Z,32.20
2019-05-25T03:38:25.579Z,32.07
2019-05-25T03:41:00.550Z,32.26
2019-05-25T03:43:34.527Z,32.25
2019-05-25T03:46:11.302Z,32.29
2019-05-25T03:48:46.607Z,32.49
2019-05-25T03:51:23.113Z,32.52
2019-05-25T03:53:56.737Z,32.64
2019-05-25T03:56:30.596Z,32.47
2019-05-25T03:59:04.514Z,32.50
2019-05-25T04:01:39.571Z,32.26
2019-05-25T04:04:14.422Z,32.08
2019-05-25T04:06:48.113Z,31.99
2019-05-25T04:09:22.067Z,32.08
2019-05-25T04:11:56.159Z,32.25
2019-05-25T04:14:31.293Z,32.34
2019-05-25T04:17:06.706Z,32.46
2019-05-25T04:19:42.619Z,32.49
2019-05-25T04:22:16.908Z,32.65
2019-05-25T04:24:50.872Z,32.86
2019-05-25T04:27:24.602Z,33.11
2019-05-25T04:29:58.417Z,33.14
2019-05-25T04:32:33.292Z,33.14
2019-05-25T04:35:09.586Z,32.96
2019-05-25T04:37:43.186Z,33.39
2019-05-25T04:40:17.624Z,33.78
2019-05-25T04:42:51.438Z,34.02
2019-05-25T04:45:25.020Z,34.17
2019-05-25T04:47:59.886Z,34.07
2019-05-25T04:50:33.785Z,33.92
2019-05-25T04:53:07.583Z,33.72
2019-05-25T04:55:42.830Z,34.04
2019-05-25T04:58:18.941Z,34.24
2019-05-25T05:00:52.687Z,34.21
2019-05-25T05:03:26.527Z,34.42
2019-05-25T05:06:01.593Z,34.34
2019-05-25T05:08:37.335Z,34.44
2019-05-25T05:11:12.726Z,34.72
2019-05-25T05:14:03.239Z,34.72
2019-05-25T05:16:29.157Z,34.57
2019-05-25T05:19:04.297Z,34.15
2019-05-25T05:21:40.075Z,34.20
2019-05-25T05:24:13.652Z,34.32
2019-05-25T05:26:55.642Z,34.31
2019-05-25T05:29:22.796Z,34.15
2019-05-25T05:31:58.150Z,33.90
2019-05-25T05:34:33.741Z,33.94
2019-05-25T05:37:07.695Z,34.07
2019-05-25T05:39:41.832Z,34.06
2019-05-25T05:42:18.722Z,34.12
2019-05-25T05:44:55.262Z,33.79
2019-05-25T05:47:30.108Z,33.86
2019-05-25T05:50:06.674Z,33.75
2019-05-25T05:52:49.613Z,33.97
2019-05-25T05:55:27.647Z,33.93
2019-05-25T05:58:02.025Z,34.24
2019-05-25T06:00:37.136Z,34.30
2019-05-25T06:03:12.098Z,34.16
2019-05-25T06:05:46.190Z,34.30
2019-05-25T06:08:20.564Z,34.42
2019-05-25T06:10:56.009Z,34.14
2019-05-25T06:13:29.849Z,34.34
2019-05-25T06:16:03.591Z,34.47
2019-05-25T06:18:37.577Z,34.80
2019-05-25T06:21:12.708Z,34.83
2019-05-25T06:23:48.062Z,34.93
2019-05-25T06:26:23.251Z,35.02
2019-05-25T06:28:57.323Z,35.12
2019-05-25T06:31:33.929Z,35.34
2019-05-25T06:34:09.425Z,35.21
2019-05-25T06:36:45.487Z,35.15
2019-05-25T06:39:21.192Z,35.26
2019-05-25T06:41:55.277Z,34.97
2019-05-25T06:44:30.651Z,34.95
2019-05-25T06:47:05.644Z,35.06
2019-05-25T06:49:39.467Z,35.06
2019-05-25T06:52:13.345Z,35.01
2019-05-25T06:54:48.007Z,34.72
2019-05-25T06:57:21.528Z,34.67
2019-05-25T06:59:55.376Z,34.69
2019-05-25T07:02:30.904Z,35.00
2019-05-25T07:05:05.038Z,34.78
2019-05-25T07:07:40.286Z,34.93
2019-05-25T07:10:16.031Z,34.88
2019-05-25T07:12:51.196Z,35.13
2019-05-25T07:15:26.597Z,35.06
2019-05-25T07:18:01.748Z,35.13
2019-05-25T07:20:36.543Z,35.19
2019-05-25T07:23:11.602Z,35.29
2019-05-25T07:25:46.602Z,34.99
2019-05-25T07:28:21.788Z,35.29
2019-05-25T07:30:55.687Z,35.21
2019-05-25T07:33:29.377Z,35.10
2019-05-25T07:36:07.303Z,35.17
2019-05-25T07:38:38.277Z,35.06
2019-05-25T07:41:13.938Z,35.10
2019-05-25T07:43:48.623Z,35.11
2019-05-25T07:46:24.265Z,35.06
2019-05-25T07:48:59.421Z,35.15
2019-05-25T07:51:33.069Z,35.18
2019-05-25T07:54:08.034Z,35.09
2019-05-25T07:56:43.109Z,35.04
2019-05-25T07:59:18.300Z,34.86
2019-05-25T08:01:53.343Z,34.88
2019-05-25T08:04:28.284Z,35.01
2019-05-25T08:07:03.796Z,35.03
2019-05-25T08:09:37.515Z,34.98
2019-05-25T08:12:13.545Z,34.97
2019-05-25T08:14:47.102Z,34.70
2019-05-25T08:17:20.748Z,34.75
2019-05-25T08:19:55.975Z,34.80
2019-05-25T08:22:31.028Z,34.81
2019-05-25T08:25:06.524Z,34.82
2019-05-25T08:27:41.476Z,34.79
2019-05-25T08:30:17.055Z,34.85
2019-05-25T08:32:50.521Z,34.78
2019-05-25T08:38:02.782Z,34.46
2019-05-25T08:40:36.441Z,34.37
2019-05-25T08:43:10.048Z,34.30
2019-05-25T08:45:43.664Z,34.24
2019-05-25T08:48:17.435Z,34.37
2019-05-25T08:50:52.352Z,34.36
2019-05-25T08:53:39.942Z,34.32
2019-05-25T08:56:01.109Z,34.23
2019-05-25T08:58:47.937Z,34.24
2019-05-25T09:01:11.399Z,34.08
2019-05-25T09:03:46.412Z,34.00
2019-05-25T09:06:21.481Z,33.75
2019-05-25T09:08:54.955Z,33.68
2019-05-25T09:11:28.548Z,33.78
2019-05-25T09:14:02.905Z,33.68
2019-05-25T09:16:38.036Z,33.58
2019-05-25T09:19:13.262Z,33.40
2019-05-25T09:22:01.419Z,33.32
2019-05-25T09:24:23.516Z,33.21
2019-05-25T09:26:58.978Z,33.22
2019-05-25T09:29:34.644Z,33.24
2019-05-25T09:35:27.412Z,32.83
2019-05-25T09:38:01.009Z,32.93
2019-05-25T09:40:35.863Z,32.80
2019-05-25T09:43:10.793Z,32.69
2019-05-25T09:45:44.675Z,32.63
2019-05-25T09:48:19.700Z,32.64
2019-05-25T09:50:53.165Z,32.68
2019-05-25T09:53:26.900Z,32.61
2019-05-25T09:56:00.503Z,32.46
2019-05-25T09:58:34.547Z,32.38
2019-05-25T10:01:09.467Z,32.31
2019-05-25T10:03:45.161Z,32.21
2019-05-25T10:06:18.744Z,32.13
2019-05-25T10:08:52.351Z,32.08
2019-05-25T10:11:26.095Z,31.91
2019-05-25T10:14:01.816Z,31.85
2019-05-25T10:16:37.454Z,31.79
2019-05-25T10:19:11.552Z,31.69
2019-05-25T10:21:45.081Z,31.77
2019-05-25T10:24:19.053Z,31.61
2019-05-25T10:26:54.305Z,31.61
2019-05-25T10:29:36.673Z,31.48
2019-05-25T10:32:02.579Z,31.40
2019-05-25T10:34:36.479Z,31.35
2019-05-25T10:37:11.847Z,31.33
2019-05-25T10:39:45.767Z,31.12
2019-05-25T10:42:20.819Z,31.21
2019-05-25T10:44:54.380Z,30.96
2019-05-25T10:47:29.752Z,30.95
2019-05-25T10:50:05.086Z,30.89
2019-05-25T10:52:38.935Z,30.82
2019-05-25T10:55:15.667Z,30.83
2019-05-25T10:57:51.286Z,30.81
2019-05-25T11:00:25.312Z,30.72
2019-05-25T11:02:59.054Z,30.66
2019-05-25T11:05:34.432Z,30.52
2019-05-25T11:08:08.238Z,30.58
2019-05-25T11:10:43.314Z,30.48
2019-05-25T11:13:17.442Z,30.42
2019-05-25T11:15:51.426Z,30.39
2019-05-25T11:18:26.556Z,30.37
2019-05-25T11:21:00.465Z,30.19
2019-05-25T11:23:36.138Z,30.18
2019-05-25T11:26:11.089Z,29.97
2019-05-25T11:28:44.883Z,29.90
2019-05-25T11:31:18.742Z,29.76
2019-05-25T11:33:52.455Z,29.71
2019-05-25T11:36:26.277Z,29.62
2019-05-25T11:39:01.991Z,29.67
2019-05-25T11:41:35.907Z,29.56
2019-05-25T11:44:09.981Z,29.49
2019-05-25T11:46:43.821Z,29.55
2019-05-25T11:49:22.344Z,29.49
2019-05-25T11:51:52.711Z,29.45
2019-05-25T11:54:27.084Z,29.39
2019-05-25T11:57:21.572Z,29.30
2019-05-25T11:59:56.840Z,29.27
2019-05-25T12:02:31.781Z,29.29
2019-05-25T12:05:08.018Z,29.22
2019-05-25T12:07:44.578Z,29.16
2019-05-25T12:10:18.401Z,29.19
2019-05-25T12:12:52.398Z,29.09
2019-05-25T12:15:26.034Z,29.07
2019-05-25T12:18:01.141Z,29.09
2019-05-25T12:20:34.696Z,29.01
2019-05-25T12:23:08.754Z,28.91
2019-05-25T12:25:49.871Z,28.92
2019-05-25T12:28:26.727Z,28.80
2019-05-25T12:31:01.859Z,28.82
2019-05-25T12:33:37.467Z,28.75
2019-05-25T12:36:12.272Z,28.62
2019-05-25T12:38:45.829Z,28.41
2019-05-25T12:41:21.057Z,28.58
2019-05-25T12:43:55.443Z,28.51
2019-05-25T12:46:30.804Z,28.38
2019-05-25T12:49:04.329Z,28.33
2019-05-25T12:51:39.670Z,28.32
2019-05-25T12:54:14.692Z,28.36
2019-05-25T12:56:48.571Z,28.30
2019-05-25T12:59:24.061Z,28.34
2019-05-25T13:01:57.855Z,28.21
2019-05-25T13:04:31.677Z,28.16
2019-05-25T13:07:05.679Z,28.12
2019-05-25T13:09:39.595Z,27.94
2019-05-25T13:12:13.256Z,27.92
2019-05-25T13:14:47.036Z,28.05
2019-05-25T13:17:20.948Z,27.93
2019-05-25T13:19:56.087Z,27.84
2019-05-25T13:22:30.910Z,27.73
2019-05-25T13:25:06.466Z,27.77
2019-05-25T13:27:40.242Z,27.73
2019-05-25T13:30:15.883Z,27.70
2019-05-25T13:32:50.816Z,27.72
2019-05-25T13:35:25.722Z,27.71
2019-05-25T13:37:59.489Z,27.65
2019-05-25T13:40:34.595Z,27.65
2019-05-25T13:43:09.733Z,27.58
2019-05-25T13:45:46.008Z,27.58
2019-05-25T13:48:19.275Z,27.41
2019-05-25T13:50:54.111Z,27.32
2019-05-25T13:53:27.916Z,27.20
2019-05-25T13:56:01.719Z,27.23
2019-05-25T13:58:39.133Z,27.13
2019-05-25T14:01:27.401Z,27.08
2019-05-25T14:03:48.507Z,27.02
2019-05-25T14:06:25.279Z,27.09
2019-05-25T14:08:58.757Z,26.90
2019-05-25T14:11:33.932Z,26.91
2019-05-25T14:14:08.719Z,26.77
2019-05-25T14:16:42.952Z,26.66
2019-05-25T14:19:18.262Z,26.68
2019-05-25T14:21:52.853Z,26.56
2019-05-25T14:24:26.675Z,26.54
2019-05-25T14:27:00.261Z,26.61
2019-05-25T14:29:34.035Z,26.41
2019-05-25T14:32:07.724Z,26.48
2019-05-25T14:34:42.840Z,26.39
2019-05-25T14:37:16.594Z,26.54
2019-05-25T14:39:53.152Z,26.42
2019-05-25T14:42:29.318Z,26.31
2019-05-25T14:45:13.142Z,26.28
2019-05-25T14:47:48.685Z,26.28
2019-05-25T14:50:23.197Z,26.17
2019-05-25T14:52:58.566Z,26.22
2019-05-25T14:55:32.403Z,26.14
2019-05-25T14:58:07.992Z,26.02
2019-05-25T15:00:42.132Z,25.94
2019-05-25T15:03:15.448Z,26.01
2019-05-25T15:05:50.728Z,25.96
2019-05-25T15:08:26.642Z,25.81
2019-05-25T15:11:00.318Z,25.83
2019-05-25T15:13:35.889Z,25.69
2019-05-25T15:16:11.084Z,25.71
2019-05-25T15:18:44.682Z,25.75
2019-05-25T15:21:19.971Z,25.72
2019-05-25T15:23:55.081Z,25.60
2019-05-25T15:26:30.019Z,25.59
2019-05-25T15:29:03.820Z,25.50
2019-05-25T15:31:38.880Z,25.49
2019-05-25T15:34:12.525Z,25.25
2019-05-25T15:36:47.454Z,25.40
2019-05-25T15:39:22.645Z,25.35
2019-05-25T15:41:57.601Z,25.29
2019-05-25T15:44:33.045Z,25.22
2019-05-25T15:47:08.006Z,25.18
2019-05-25T15:49:41.692Z,25.13
2019-05-25T15:52:16.804Z,25.07
2019-05-25T15:54:51.905Z,24.91
2019-05-25T15:57:26.252Z,24.83
2019-05-25T16:00:01.271Z,24.88
2019-05-25T16:02:37.264Z,24.73
2019-05-25T16:05:11.429Z,24.78
2019-05-25T16:07:52.249Z,24.71
2019-05-25T16:10:26.026Z,24.70
2019-05-25T16:13:01.108Z,24.37
2019-05-25T16:15:34.647Z,24.36
2019-05-25T16:18:09.860Z,24.35
2019-05-25T16:20:45.041Z,24.16
2019-05-25T16:23:19.833Z,24.07
2019-05-25T16:25:54.805Z,23.72
2019-05-25T16:28:30.685Z,23.90
2019-05-25T16:31:05.732Z,23.72
2019-05-25T16:33:39.620Z,23.88
2019-05-25T16:36:13.394Z,23.78
2019-05-25T16:38:48.508Z,23.74
2019-05-25T16:41:22.089Z,23.83
2019-05-25T16:43:59.142Z,23.68
2019-05-25T16:46:32.160Z,23.55
2019-05-25T16:49:06.100Z,23.41
2019-05-25T16:51:41.502Z,23.49
2019-05-25T16:54:16.503Z,23.49
2019-05-25T16:56:51.656Z,23.18
2019-05-25T16:59:25.311Z,23.21
2019-05-25T17:02:00.525Z,23.02
2019-05-25T17:04:35.606Z,22.93
2019-05-25T17:07:10.488Z,22.91
2019-05-25T17:09:44.409Z,22.85
2019-05-25T17:12:17.949Z,22.76
2019-05-25T17:14:51.701Z,22.67
2019-05-25T17:17:26.570Z,22.71
2019-05-25T17:20:00.214Z,22.67
2019-05-25T17:22:33.657Z,22.60
2019-05-25T17:25:08.872Z,22.84
2019-05-25T17:27:43.855Z,22.93
2019-05-25T17:30:19.422Z,22.76
2019-05-25T17:32:53.946Z,22.74
2019-05-25T17:35:29.123Z,22.64
2019-05-25T17:38:02.727Z,22.80
2019-05-25T17:40:37.988Z,22.74
2019-05-25T17:43:13.682Z,22.61
2019-05-25T17:45:48.963Z,22.32
2019-05-25T17:48:22.368Z,22.58
2019-05-25T17:50:56.158Z,22.40
2019-05-25T17:53:29.771Z,22.32
2019-05-25T17:56:04.817Z,22.09
2019-05-25T17:58:40.065Z,21.98
2019-05-25T18:01:15.466Z,22.00
2019-05-25T18:04:04.868Z,22.05
2019-05-25T18:06:24.614Z,21.52
2019-05-25T18:08:58.443Z,21.60
2019-05-25T18:11:33.539Z,21.56
2019-05-25T18:14:07.744Z,21.56
2019-05-25T18:16:43.357Z,21.31
2019-05-25T18:19:18.792Z,21.30
2019-05-25T18:21:52.581Z,21.30
2019-05-25T18:24:28.416Z,21.24
2019-05-25T18:27:01.991Z,21.13
2019-05-25T18:29:36.185Z,21.12
2019-05-25T18:32:11.335Z,21.23
2019-05-25T18:37:18.359Z,21.05
2019-05-25T18:39:52.198Z,21.11
2019-05-25T18:42:29.495Z,21.35
2019-05-25T18:45:02.054Z,21.38
2019-05-25T18:47:35.905Z,21.16
2019-05-25T18:50:14.923Z,21.24
2019-05-25T18:52:49.125Z,21.14
2019-05-25T18:55:23.386Z,20.87
2019-05-25T18:57:56.985Z,21.05
2019-05-25T19:00:33.750Z,21.14
2019-05-25T19:03:07.702Z,20.60
2019-05-25T19:05:42.742Z,20.81
2019-05-25T19:08:16.275Z,20.98
2019-05-25T19:10:52.666Z,20.84
2019-05-25T19:13:27.872Z,20.96
2019-05-25T19:16:02.764Z,20.58
2019-05-25T19:18:38.196Z,20.65
2019-05-25T19:21:13.282Z,20.68
2019-05-25T19:23:47.293Z,20.54
2019-05-25T19:26:22.475Z,20.45
2019-05-25T19:28:55.995Z,20.53
2019-05-25T19:31:31.208Z,20.55
2019-05-25T19:34:06.971Z,20.25
2019-05-25T19:36:42.636Z,20.33
2019-05-25T19:39:16.224Z,20.24
2019-05-25T19:41:50.379Z,20.47
2019-05-25T19:44:26.503Z,20.42
2019-05-25T19:47:00.761Z,20.22
2019-05-25T19:49:36.264Z,20.42
2019-05-25T19:52:11.515Z,20.52
2019-05-25T19:54:46.867Z,20.27
2019-05-25T19:57:20.800Z,20.33
2019-05-25T19:59:56.172Z,20.41
2019-05-25T20:02:31.793Z,20.21
2019-05-25T20:05:15.724Z,20.13
2019-05-25T20:07:41.245Z,20.07
2019-05-25T20:10:15.499Z,20.03
2019-05-25T20:12:50.934Z,20.04
2019-05-25T20:15:26.473Z,20.06
2019-05-25T20:18:01.651Z,20.16
2019-05-25T20:20:36.704Z,20.26
2019-05-25T20:23:11.785Z,20.35
2019-05-25T20:25:45.528Z,20.33
2019-05-25T20:28:20.691Z,20.31
2019-05-25T20:30:54.978Z,20.15
2019-05-25T20:33:28.718Z,20.07
2019-05-25T20:36:03.865Z,20.05
2019-05-25T20:38:37.552Z,20.18
2019-05-25T20:41:11.256Z,20.28
2019-05-25T20:43:45.172Z,20.25
2019-05-25T20:46:19.910Z,20.26
2019-05-25T20:48:53.752Z,20.32
2019-05-25T20:51:28.331Z,20.45
2019-05-25T20:54:03.835Z,20.52
2019-05-25T20:56:39.032Z,20.61
2019-05-25T20:59:12.566Z,20.60
2019-05-25T21:01:48.133Z,20.72
2019-05-25T21:04:23.269Z,20.77
2019-05-25T21:06:58.484Z,20.83
2019-05-25T21:09:32.891Z,20.92
2019-05-25T21:12:09.800Z,20.94
2019-05-25T21:14:43.502Z,20.90
2019-05-25T21:17:18.931Z,20.91
2019-05-25T21:19:54.137Z,20.90
2019-05-25T21:22:29.396Z,20.94
2019-05-25T21:25:05.997Z,21.06
2019-05-25T21:27:39.912Z,21.04
2019-05-25T21:30:15.341Z,20.93
2019-05-25T21:32:50.750Z,21.06
2019-05-25T21:35:26.642Z,20.99
2019-05-25T21:38:00.450Z,21.06
2019-05-25T21:40:33.939Z,21.00
2019-05-25T21:43:08.820Z,20.64
2019-05-25T21:45:44.010Z,20.73
2019-05-25T21:48:19.103Z,20.74
2019-05-25T21:50:53.949Z,20.71
2019-05-25T21:53:29.460Z,20.79
2019-05-25T21:56:04.415Z,20.53
2019-05-25T21:58:40.260Z,20.40
2019-05-25T22:01:14.256Z,20.29
2019-05-25T22:03:49.914Z,20.48
2019-05-25T22:06:24.545Z,20.45
2019-05-25T22:08:59.880Z,20.20
2019-05-25T22:11:34.861Z,20.29
2019-05-25T22:14:08.810Z,20.33
2019-05-25T22:16:43.832Z,20.42
2019-05-25T22:19:19.038Z,20.50
2019-05-25T22:21:52.675Z,20.60
2019-05-25T22:24:27.693Z,20.45
2019-05-25T22:27:01.570Z,20.64
2019-05-25T22:29:36.848Z,20.63
2019-05-25T22:32:10.655Z,20.69
2019-05-25T22:34:45.528Z,20.63
2019-05-25T22:37:19.449Z,20.58
2019-05-25T22:39:54.365Z,20.69
2019-05-25T22:42:28.149Z,20.73
2019-05-25T22:45:02.037Z,20.72
2019-05-25T22:47:35.584Z,20.78
2019-05-25T22:50:09.742Z,20.85
2019-05-25T22:52:43.868Z,20.79
2019-05-25T22:55:18.879Z,20.69
2019-05-25T22:57:53.854Z,20.70
2019-05-25T23:00:27.553Z,20.85
2019-05-25T23:03:03.691Z,20.76
2019-05-25T23:05:37.461Z,20.71
2019-05-25T23:08:11.176Z,20.75
2019-05-25T23:10:44.885Z,20.77
2019-05-25T23:13:18.631Z,20.68
2019-05-25T23:15:53.924Z,20.67
2019-05-25T23:18:27.637Z,20.65
2019-05-25T23:21:01.288Z,20.68
2019-05-25T23:23:36.438Z,20.71
2019-05-25T23:26:10.004Z,20.71
2019-05-25T23:28:44.053Z,20.68
2019-05-25T23:31:19.250Z,20.66
2019-05-25T23:33:52.727Z,20.64
2019-05-25T23:36:27.609Z,20.71
2019-05-25T23:39:02.634Z,20.67
2019-05-25T23:41:36.353Z,20.75
2019-05-25T23:44:10.388Z,20.71
2019-05-25T23:46:44.195Z,20.59
2019-05-25T23:49:18.063Z,20.57
2019-05-25T23:51:51.607Z,20.62
2019-05-25T23:54:26.012Z,20.54
2019-05-25T23:56:59.790Z,20.62
2019-05-25T23:59:35.232Z,20.60
